sensor_id;sensor_type;location;lat;lon;timestamp;P1;durP1;ratioP1;P2;durP2;ratioP2
29362;SDS011;16349;53.672;10.014;2023-04-07T00:00:28;9.57;;;6.50;;
29362;SDS011;16349;53.672;10.014;2023-04-07T00:02:55;12.57;;;6.77;;
29362;SDS011;16349;53.672;10.014;2023-04-07T00:05:45;11.17;;;6.80;;
29362;SDS011;16349;53.672;10.014;2023-04-07T00:08:12;8.17;;;6.90;;
29362;SDS011;16349;53.672;10.014;2023-04-07T00:10:40;8.20;;;6.10;;
29362;SDS011;16349;53.672;10.014;2023-04-07T00:13:07;11.30;;;7.03;;
29362;SDS011;16349;53.672;10.014;2023-04-07T00:15:34;7.60;;;5.80;;
29362;SDS011;16349;53.672;10.014;2023-04-07T00:18:01;10.73;;;6.40;;
29362;SDS011;16349;53.672;10.014;2023-04-07T00:20:28;7.23;;;6.53;;
29362;SDS011;16349;53.672;10.014;2023-04-07T00:22:55;7.30;;;5.87;;
29362;SDS011;16349;53.672;10.014;2023-04-07T00:25:21;8.63;;;6.40;;
29362;SDS011;16349;53.672;10.014;2023-04-07T00:27:50;7.17;;;6.17;;
29362;SDS011;16349;53.672;10.014;2023-04-07T00:30:17;7.27;;;6.07;;
29362;SDS011;16349;53.672;10.014;2023-04-07T00:32:44;8.53;;;7.73;;
29362;SDS011;16349;53.672;10.014;2023-04-07T00:35:11;7.53;;;6.70;;
29362;SDS011;16349;53.672;10.014;2023-04-07T00:37:38;7.33;;;6.63;;
29362;SDS011;16349;53.672;10.014;2023-04-07T00:40:05;8.90;;;7.00;;
29362;SDS011;16349;53.672;10.014;2023-04-07T00:42:33;7.93;;;6.73;;
29362;SDS011;16349;53.672;10.014;2023-04-07T00:45:01;7.37;;;6.53;;
29362;SDS011;16349;53.672;10.014;2023-04-07T00:47:29;8.40;;;6.23;;
29362;SDS011;16349;53.672;10.014;2023-04-07T00:49:56;7.60;;;6.27;;
29362;SDS011;16349;53.672;10.014;2023-04-07T00:52:23;7.37;;;6.67;;
29362;SDS011;16349;53.672;10.014;2023-04-07T00:54:54;7.63;;;6.20;;
29362;SDS011;16349;53.672;10.014;2023-04-07T00:57:21;7.43;;;6.27;;
29362;SDS011;16349;53.672;10.014;2023-04-07T00:59:50;7.13;;;6.43;;
29362;SDS011;16349;53.672;10.014;2023-04-07T01:02:20;7.07;;;5.97;;
29362;SDS011;16349;53.672;10.014;2023-04-07T01:04:53;6.70;;;6.00;;
29362;SDS011;16349;53.672;10.014;2023-04-07T01:07:26;6.07;;;5.43;;
29362;SDS011;16349;53.672;10.014;2023-04-07T01:10:21;6.43;;;5.83;;
29362;SDS011;16349;53.672;10.014;2023-04-07T01:13:02;8.77;;;6.40;;
29362;SDS011;16349;53.672;10.014;2023-04-07T01:15:34;7.83;;;6.00;;
29362;SDS011;16349;53.672;10.014;2023-04-07T01:18:07;7.00;;;6.00;;
29362;SDS011;16349;53.672;10.014;2023-04-07T01:20:38;6.57;;;5.80;;
29362;SDS011;16349;53.672;10.014;2023-04-07T01:23:09;8.67;;;5.43;;
29362;SDS011;16349;53.672;10.014;2023-04-07T01:25:59;7.63;;;6.40;;
29362;SDS011;16349;53.672;10.014;2023-04-07T01:28:54;6.90;;;5.97;;
29362;SDS011;16349;53.672;10.014;2023-04-07T01:31:30;6.50;;;5.53;;
29362;SDS011;16349;53.672;10.014;2023-04-07T01:33:59;7.37;;;6.13;;
29362;SDS011;16349;53.672;10.014;2023-04-07T01:36:29;5.53;;;5.03;;
29362;SDS011;16349;53.672;10.014;2023-04-07T01:38:58;6.10;;;5.50;;
29362;SDS011;16349;53.672;10.014;2023-04-07T01:41:25;8.73;;;5.70;;
29362;SDS011;16349;53.672;10.014;2023-04-07T01:43:53;6.93;;;5.47;;
29362;SDS011;16349;53.672;10.014;2023-04-07T01:46:22;8.77;;;5.50;;
29362;SDS011;16349;53.672;10.014;2023-04-07T01:48:51;7.13;;;5.20;;
29362;SDS011;16349;53.672;10.014;2023-04-07T01:51:19;5.57;;;5.07;;
29362;SDS011;16349;53.672;10.014;2023-04-07T01:53:47;5.67;;;5.17;;
29362;SDS011;16349;53.672;10.014;2023-04-07T01:56:16;6.33;;;5.33;;
29362;SDS011;16349;53.672;10.014;2023-04-07T01:58:47;5.37;;;4.87;;
29362;SDS011;16349;53.672;10.014;2023-04-07T02:01:17;5.80;;;5.10;;
29362;SDS011;16349;53.672;10.014;2023-04-07T02:03:45;8.03;;;5.10;;
29362;SDS011;16349;53.672;10.014;2023-04-07T02:06:21;6.33;;;5.73;;
29362;SDS011;16349;53.672;10.014;2023-04-07T02:08:54;5.93;;;4.47;;
29362;SDS011;16349;53.672;10.014;2023-04-07T02:11:24;9.90;;;4.90;;
29362;SDS011;16349;53.672;10.014;2023-04-07T02:13:56;7.10;;;5.37;;
29362;SDS011;16349;53.672;10.014;2023-04-07T02:16:27;5.30;;;4.70;;
29362;SDS011;16349;53.672;10.014;2023-04-07T02:19:17;5.07;;;4.57;;
29362;SDS011;16349;53.672;10.014;2023-04-07T02:21:46;5.07;;;4.47;;
29362;SDS011;16349;53.672;10.014;2023-04-07T02:24:17;5.13;;;4.60;;
29362;SDS011;16349;53.672;10.014;2023-04-07T02:26:45;5.97;;;5.07;;
29362;SDS011;16349;53.672;10.014;2023-04-07T02:29:12;5.30;;;4.80;;
29362;SDS011;16349;53.672;10.014;2023-04-07T02:31:41;4.90;;;4.30;;
29362;SDS011;16349;53.672;10.014;2023-04-07T02:34:08;4.90;;;4.50;;
29362;SDS011;16349;53.672;10.014;2023-04-07T02:36:37;6.13;;;4.30;;
29362;SDS011;16349;53.672;10.014;2023-04-07T02:39:07;6.17;;;4.60;;
29362;SDS011;16349;53.672;10.014;2023-04-07T02:41:35;4.83;;;4.30;;
29362;SDS011;16349;53.672;10.014;2023-04-07T02:44:01;4.23;;;3.83;;
29362;SDS011;16349;53.672;10.014;2023-04-07T02:46:28;5.67;;;4.43;;
29362;SDS011;16349;53.672;10.014;2023-04-07T02:48:55;5.83;;;4.47;;
29362;SDS011;16349;53.672;10.014;2023-04-07T02:51:22;7.10;;;4.70;;
29362;SDS011;16349;53.672;10.014;2023-04-07T02:53:52;5.40;;;4.37;;
29362;SDS011;16349;53.672;10.014;2023-04-07T02:56:20;5.67;;;4.37;;
29362;SDS011;16349;53.672;10.014;2023-04-07T02:58:48;4.60;;;4.20;;
29362;SDS011;16349;53.672;10.014;2023-04-07T03:01:15;6.63;;;4.30;;
29362;SDS011;16349;53.672;10.014;2023-04-07T03:03:42;5.03;;;4.00;;
29362;SDS011;16349;53.672;10.014;2023-04-07T03:06:16;5.17;;;4.17;;
29362;SDS011;16349;53.672;10.014;2023-04-07T03:08:56;6.47;;;4.50;;
29362;SDS011;16349;53.672;10.014;2023-04-07T03:11:24;4.30;;;3.83;;
29362;SDS011;16349;53.672;10.014;2023-04-07T03:13:51;5.47;;;4.47;;
29362;SDS011;16349;53.672;10.014;2023-04-07T03:16:18;4.73;;;4.30;;
29362;SDS011;16349;53.672;10.014;2023-04-07T03:18:57;4.33;;;3.93;;
29362;SDS011;16349;53.672;10.014;2023-04-07T03:21:24;5.47;;;4.07;;
29362;SDS011;16349;53.672;10.014;2023-04-07T03:23:53;4.50;;;4.10;;
29362;SDS011;16349;53.672;10.014;2023-04-07T03:26:20;4.83;;;3.40;;
29362;SDS011;16349;53.672;10.014;2023-04-07T03:28:49;9.13;;;4.37;;
29362;SDS011;16349;53.672;10.014;2023-04-07T03:31:17;5.23;;;4.70;;
29362;SDS011;16349;53.672;10.014;2023-04-07T03:33:44;4.83;;;4.07;;
29362;SDS011;16349;53.672;10.014;2023-04-07T03:36:10;4.80;;;4.20;;
29362;SDS011;16349;53.672;10.014;2023-04-07T03:38:38;4.90;;;3.80;;
29362;SDS011;16349;53.672;10.014;2023-04-07T03:41:06;6.23;;;4.30;;
29362;SDS011;16349;53.672;10.014;2023-04-07T03:43:33;5.93;;;4.10;;
29362;SDS011;16349;53.672;10.014;2023-04-07T03:46:02;5.23;;;4.30;;
29362;SDS011;16349;53.672;10.014;2023-04-07T03:48:29;6.17;;;3.87;;
29362;SDS011;16349;53.672;10.014;2023-04-07T03:51:02;4.27;;;3.87;;
29362;SDS011;16349;53.672;10.014;2023-04-07T03:53:30;4.67;;;4.27;;
29362;SDS011;16349;53.672;10.014;2023-04-07T03:56:00;4.63;;;4.23;;
29362;SDS011;16349;53.672;10.014;2023-04-07T03:58:41;4.50;;;4.10;;
29362;SDS011;16349;53.672;10.014;2023-04-07T04:01:15;5.10;;;4.13;;
29362;SDS011;16349;53.672;10.014;2023-04-07T04:03:45;5.80;;;4.37;;
29362;SDS011;16349;53.672;10.014;2023-04-07T04:06:30;5.23;;;3.90;;
29362;SDS011;16349;53.672;10.014;2023-04-07T04:09:06;4.63;;;4.23;;
29362;SDS011;16349;53.672;10.014;2023-04-07T04:11:36;4.60;;;4.20;;
29362;SDS011;16349;53.672;10.014;2023-04-07T04:14:04;4.83;;;4.43;;
29362;SDS011;16349;53.672;10.014;2023-04-07T04:16:34;6.03;;;4.60;;
29362;SDS011;16349;53.672;10.014;2023-04-07T04:19:07;4.73;;;3.70;;
29362;SDS011;16349;53.672;10.014;2023-04-07T04:21:34;5.63;;;4.50;;
29362;SDS011;16349;53.672;10.014;2023-04-07T04:24:01;5.97;;;4.47;;
29362;SDS011;16349;53.672;10.014;2023-04-07T04:26:29;6.70;;;4.37;;
29362;SDS011;16349;53.672;10.014;2023-04-07T04:29:02;8.53;;;4.00;;
29362;SDS011;16349;53.672;10.014;2023-04-07T04:31:29;4.43;;;4.03;;
29362;SDS011;16349;53.672;10.014;2023-04-07T04:33:59;4.60;;;4.07;;
29362;SDS011;16349;53.672;10.014;2023-04-07T04:36:25;7.40;;;4.20;;
29362;SDS011;16349;53.672;10.014;2023-04-07T04:38:57;5.63;;;4.03;;
29362;SDS011;16349;53.672;10.014;2023-04-07T04:41:24;5.40;;;4.37;;
29362;SDS011;16349;53.672;10.014;2023-04-07T04:43:51;4.47;;;4.03;;
29362;SDS011;16349;53.672;10.014;2023-04-07T04:46:22;5.50;;;4.03;;
29362;SDS011;16349;53.672;10.014;2023-04-07T04:48:49;6.33;;;4.47;;
29362;SDS011;16349;53.672;10.014;2023-04-07T04:51:20;5.43;;;4.53;;
29362;SDS011;16349;53.672;10.014;2023-04-07T04:53:52;5.17;;;3.97;;
29362;SDS011;16349;53.672;10.014;2023-04-07T04:56:21;6.97;;;4.23;;
29362;SDS011;16349;53.672;10.014;2023-04-07T04:58:49;6.60;;;4.20;;
29362;SDS011;16349;53.672;10.014;2023-04-07T05:01:28;4.33;;;3.93;;
29362;SDS011;16349;53.672;10.014;2023-04-07T05:04:03;4.63;;;4.00;;
29362;SDS011;16349;53.672;10.014;2023-04-07T05:06:31;5.60;;;3.90;;
29362;SDS011;16349;53.672;10.014;2023-04-07T05:09:04;6.03;;;4.20;;
29362;SDS011;16349;53.672;10.014;2023-04-07T05:11:51;6.63;;;4.57;;
29362;SDS011;16349;53.672;10.014;2023-04-07T05:14:19;5.67;;;5.07;;
29362;SDS011;16349;53.672;10.014;2023-04-07T05:16:52;5.33;;;4.00;;
29362;SDS011;16349;53.672;10.014;2023-04-07T05:19:25;6.80;;;4.57;;
29362;SDS011;16349;53.672;10.014;2023-04-07T05:21:57;5.77;;;3.97;;
29362;SDS011;16349;53.672;10.014;2023-04-07T05:24:25;6.67;;;4.63;;
29362;SDS011;16349;53.672;10.014;2023-04-07T05:27:12;7.67;;;4.40;;
29362;SDS011;16349;53.672;10.014;2023-04-07T05:29:41;4.77;;;4.37;;
29362;SDS011;16349;53.672;10.014;2023-04-07T05:32:18;5.00;;;4.43;;
29362;SDS011;16349;53.672;10.014;2023-04-07T05:34:46;4.70;;;4.17;;
29362;SDS011;16349;53.672;10.014;2023-04-07T05:37:16;5.37;;;4.07;;
29362;SDS011;16349;53.672;10.014;2023-04-07T05:39:44;5.20;;;4.60;;
29362;SDS011;16349;53.672;10.014;2023-04-07T05:42:12;7.80;;;4.23;;
29362;SDS011;16349;53.672;10.014;2023-04-07T05:44:41;4.67;;;4.20;;
29362;SDS011;16349;53.672;10.014;2023-04-07T05:47:08;7.33;;;4.20;;
29362;SDS011;16349;53.672;10.014;2023-04-07T05:49:37;5.70;;;4.30;;
29362;SDS011;16349;53.672;10.014;2023-04-07T05:52:11;6.20;;;4.70;;
29362;SDS011;16349;53.672;10.014;2023-04-07T05:54:43;5.57;;;4.27;;
29362;SDS011;16349;53.672;10.014;2023-04-07T05:57:12;6.40;;;4.30;;
29362;SDS011;16349;53.672;10.014;2023-04-07T05:59:42;4.97;;;4.47;;
29362;SDS011;16349;53.672;10.014;2023-04-07T06:02:10;6.33;;;4.20;;
29362;SDS011;16349;53.672;10.014;2023-04-07T06:04:38;5.10;;;4.23;;
29362;SDS011;16349;53.672;10.014;2023-04-07T06:07:07;5.67;;;4.07;;
29362;SDS011;16349;53.672;10.014;2023-04-07T06:09:34;4.27;;;3.87;;
29362;SDS011;16349;53.672;10.014;2023-04-07T06:12:02;7.67;;;4.40;;
29362;SDS011;16349;53.672;10.014;2023-04-07T06:14:31;7.30;;;4.37;;
29362;SDS011;16349;53.672;10.014;2023-04-07T06:16:58;4.67;;;4.27;;
29362;SDS011;16349;53.672;10.014;2023-04-07T06:19:25;5.80;;;4.20;;
29362;SDS011;16349;53.672;10.014;2023-04-07T06:21:52;5.53;;;4.07;;
29362;SDS011;16349;53.672;10.014;2023-04-07T06:24:38;5.97;;;4.10;;
29362;SDS011;16349;53.672;10.014;2023-04-07T06:27:06;6.10;;;4.33;;
29362;SDS011;16349;53.672;10.014;2023-04-07T06:29:33;7.37;;;4.77;;
29362;SDS011;16349;53.672;10.014;2023-04-07T06:32:03;5.10;;;4.53;;
29362;SDS011;16349;53.672;10.014;2023-04-07T06:34:31;5.93;;;4.70;;
29362;SDS011;16349;53.672;10.014;2023-04-07T06:36:58;6.00;;;4.10;;
29362;SDS011;16349;53.672;10.014;2023-04-07T06:39:26;4.97;;;4.47;;
29362;SDS011;16349;53.672;10.014;2023-04-07T06:41:53;6.40;;;5.03;;
29362;SDS011;16349;53.672;10.014;2023-04-07T06:44:22;5.83;;;4.83;;
29362;SDS011;16349;53.672;10.014;2023-04-07T06:46:50;5.77;;;4.67;;
29362;SDS011;16349;53.672;10.014;2023-04-07T06:49:19;5.23;;;4.47;;
29362;SDS011;16349;53.672;10.014;2023-04-07T06:51:47;5.17;;;4.20;;
29362;SDS011;16349;53.672;10.014;2023-04-07T06:54:14;5.00;;;4.50;;
29362;SDS011;16349;53.672;10.014;2023-04-07T06:56:41;6.87;;;4.93;;
29362;SDS011;16349;53.672;10.014;2023-04-07T06:59:29;4.77;;;4.37;;
29362;SDS011;16349;53.672;10.014;2023-04-07T07:01:56;4.70;;;4.30;;
29362;SDS011;16349;53.672;10.014;2023-04-07T07:04:23;6.27;;;4.43;;
29362;SDS011;16349;53.672;10.014;2023-04-07T07:06:50;5.10;;;4.60;;
29362;SDS011;16349;53.672;10.014;2023-04-07T07:09:17;5.67;;;4.40;;
29362;SDS011;16349;53.672;10.014;2023-04-07T07:11:44;5.87;;;4.47;;
29362;SDS011;16349;53.672;10.014;2023-04-07T07:14:12;6.30;;;4.00;;
29362;SDS011;16349;53.672;10.014;2023-04-07T07:16:40;5.63;;;4.30;;
29362;SDS011;16349;53.672;10.014;2023-04-07T07:19:07;7.23;;;4.70;;
29362;SDS011;16349;53.672;10.014;2023-04-07T07:21:33;6.50;;;4.23;;
29362;SDS011;16349;53.672;10.014;2023-04-07T07:24:00;5.43;;;4.33;;
29362;SDS011;16349;53.672;10.014;2023-04-07T07:26:45;4.77;;;3.90;;
29362;SDS011;16349;53.672;10.014;2023-04-07T07:29:12;5.13;;;3.90;;
29362;SDS011;16349;53.672;10.014;2023-04-07T07:31:41;5.23;;;4.20;;
29362;SDS011;16349;53.672;10.014;2023-04-07T07:34:08;5.23;;;3.90;;
29362;SDS011;16349;53.672;10.014;2023-04-07T07:36:35;4.67;;;3.70;;
29362;SDS011;16349;53.672;10.014;2023-04-07T07:39:02;3.90;;;3.53;;
29362;SDS011;16349;53.672;10.014;2023-04-07T07:41:29;4.17;;;3.73;;
29362;SDS011;16349;53.672;10.014;2023-04-07T07:43:57;6.03;;;4.00;;
29362;SDS011;16349;53.672;10.014;2023-04-07T07:46:23;5.17;;;3.57;;
29362;SDS011;16349;53.672;10.014;2023-04-07T07:48:52;5.43;;;4.03;;
29362;SDS011;16349;53.672;10.014;2023-04-07T07:51:19;4.27;;;3.73;;
29362;SDS011;16349;53.672;10.014;2023-04-07T07:53:47;5.80;;;3.70;;
29362;SDS011;16349;53.672;10.014;2023-04-07T07:56:14;5.23;;;3.83;;
29362;SDS011;16349;53.672;10.014;2023-04-07T07:58:41;6.23;;;4.00;;
29362;SDS011;16349;53.672;10.014;2023-04-07T08:01:07;5.03;;;3.70;;
29362;SDS011;16349;53.672;10.014;2023-04-07T08:03:34;4.50;;;3.37;;
29362;SDS011;16349;53.672;10.014;2023-04-07T08:06:02;4.77;;;4.10;;
29362;SDS011;16349;53.672;10.014;2023-04-07T08:08:30;4.10;;;3.67;;
29362;SDS011;16349;53.672;10.014;2023-04-07T08:10:56;5.80;;;3.83;;
29362;SDS011;16349;53.672;10.014;2023-04-07T08:13:23;5.57;;;3.93;;
29362;SDS011;16349;53.672;10.014;2023-04-07T08:15:50;6.10;;;4.30;;
29362;SDS011;16349;53.672;10.014;2023-04-07T08:18:17;4.57;;;4.17;;
29362;SDS011;16349;53.672;10.014;2023-04-07T08:20:44;4.40;;;3.60;;
29362;SDS011;16349;53.672;10.014;2023-04-07T08:23:13;4.43;;;3.63;;
29362;SDS011;16349;53.672;10.014;2023-04-07T08:25:41;4.27;;;3.57;;
29362;SDS011;16349;53.672;10.014;2023-04-07T08:28:07;8.57;;;3.10;;
29362;SDS011;16349;53.672;10.014;2023-04-07T08:30:35;6.77;;;3.90;;
29362;SDS011;16349;53.672;10.014;2023-04-07T08:33:04;4.27;;;3.87;;
29362;SDS011;16349;53.672;10.014;2023-04-07T08:35:31;5.53;;;3.87;;
29362;SDS011;16349;53.672;10.014;2023-04-07T08:37:58;4.70;;;3.63;;
29362;SDS011;16349;53.672;10.014;2023-04-07T08:40:28;5.37;;;3.50;;
29362;SDS011;16349;53.672;10.014;2023-04-07T08:42:55;4.13;;;3.70;;
29362;SDS011;16349;53.672;10.014;2023-04-07T08:45:25;5.20;;;3.57;;
29362;SDS011;16349;53.672;10.014;2023-04-07T08:47:53;3.70;;;3.30;;
29362;SDS011;16349;53.672;10.014;2023-04-07T08:50:21;4.20;;;3.80;;
29362;SDS011;16349;53.672;10.014;2023-04-07T08:52:52;3.87;;;3.57;;
29362;SDS011;16349;53.672;10.014;2023-04-07T08:55:20;4.57;;;3.50;;
29362;SDS011;16349;53.672;10.014;2023-04-07T08:57:49;6.13;;;3.60;;
29362;SDS011;16349;53.672;10.014;2023-04-07T09:00:17;3.80;;;3.50;;
29362;SDS011;16349;53.672;10.014;2023-04-07T09:02:45;6.10;;;4.00;;
29362;SDS011;16349;53.672;10.014;2023-04-07T09:05:16;4.10;;;3.53;;
29362;SDS011;16349;53.672;10.014;2023-04-07T09:07:42;5.33;;;3.83;;
29362;SDS011;16349;53.672;10.014;2023-04-07T09:10:09;5.57;;;3.97;;
29362;SDS011;16349;53.672;10.014;2023-04-07T09:12:39;5.37;;;4.07;;
29362;SDS011;16349;53.672;10.014;2023-04-07T09:15:07;5.20;;;3.73;;
29362;SDS011;16349;53.672;10.014;2023-04-07T09:17:35;5.73;;;4.33;;
29362;SDS011;16349;53.672;10.014;2023-04-07T09:20:02;4.47;;;4.07;;
29362;SDS011;16349;53.672;10.014;2023-04-07T09:22:33;4.73;;;4.33;;
29362;SDS011;16349;53.672;10.014;2023-04-07T09:25:11;5.00;;;4.50;;
29362;SDS011;16349;53.672;10.014;2023-04-07T09:27:40;4.83;;;4.20;;
29362;SDS011;16349;53.672;10.014;2023-04-07T09:30:23;6.90;;;4.90;;
29362;SDS011;16349;53.672;10.014;2023-04-07T09:32:51;5.03;;;4.53;;
29362;SDS011;16349;53.672;10.014;2023-04-07T09:35:18;4.63;;;4.07;;
29362;SDS011;16349;53.672;10.014;2023-04-07T09:37:59;6.30;;;4.37;;
29362;SDS011;16349;53.672;10.014;2023-04-07T09:40:29;4.73;;;4.27;;
29362;SDS011;16349;53.672;10.014;2023-04-07T09:42:56;4.80;;;4.00;;
29362;SDS011;16349;53.672;10.014;2023-04-07T09:45:25;4.27;;;3.90;;
29362;SDS011;16349;53.672;10.014;2023-04-07T09:47:53;3.73;;;3.27;;
29362;SDS011;16349;53.672;10.014;2023-04-07T09:50:30;3.60;;;3.30;;
29362;SDS011;16349;53.672;10.014;2023-04-07T09:52:59;3.47;;;3.17;;
29362;SDS011;16349;53.672;10.014;2023-04-07T09:55:27;4.10;;;3.70;;
29362;SDS011;16349;53.672;10.014;2023-04-07T09:57:54;4.13;;;3.80;;
29362;SDS011;16349;53.672;10.014;2023-04-07T10:00:21;4.57;;;4.10;;
29362;SDS011;16349;53.672;10.014;2023-04-07T10:02:50;4.60;;;3.27;;
29362;SDS011;16349;53.672;10.014;2023-04-07T10:05:18;5.30;;;4.30;;
29362;SDS011;16349;53.672;10.014;2023-04-07T10:07:46;4.63;;;4.10;;
29362;SDS011;16349;53.672;10.014;2023-04-07T10:10:32;3.93;;;3.53;;
29362;SDS011;16349;53.672;10.014;2023-04-07T10:13:01;4.63;;;4.00;;
29362;SDS011;16349;53.672;10.014;2023-04-07T10:15:30;5.73;;;3.50;;
29362;SDS011;16349;53.672;10.014;2023-04-07T10:17:58;6.60;;;3.87;;
29362;SDS011;16349;53.672;10.014;2023-04-07T10:20:26;8.17;;;4.07;;
29362;SDS011;16349;53.672;10.014;2023-04-07T10:22:54;6.03;;;4.03;;
29362;SDS011;16349;53.672;10.014;2023-04-07T10:25:28;5.53;;;4.27;;
29362;SDS011;16349;53.672;10.014;2023-04-07T10:27:57;4.80;;;4.20;;
29362;SDS011;16349;53.672;10.014;2023-04-07T10:30:30;4.83;;;3.77;;
29362;SDS011;16349;53.672;10.014;2023-04-07T10:33:00;4.47;;;4.07;;
29362;SDS011;16349;53.672;10.014;2023-04-07T10:35:29;4.63;;;4.00;;
29362;SDS011;16349;53.672;10.014;2023-04-07T10:38:32;4.33;;;3.93;;
29362;SDS011;16349;53.672;10.014;2023-04-07T10:40:59;6.07;;;4.07;;
29362;SDS011;16349;53.672;10.014;2023-04-07T10:43:47;4.77;;;3.80;;
29362;SDS011;16349;53.672;10.014;2023-04-07T10:46:13;5.67;;;4.27;;
29362;SDS011;16349;53.672;10.014;2023-04-07T10:48:42;4.93;;;4.30;;
29362;SDS011;16349;53.672;10.014;2023-04-07T10:51:29;5.00;;;3.90;;
29362;SDS011;16349;53.672;10.014;2023-04-07T11:02:39;6.20;;;4.00;;
29362;SDS011;16349;53.672;10.014;2023-04-07T11:05:29;4.40;;;4.00;;
29362;SDS011;16349;53.672;10.014;2023-04-07T11:07:56;4.17;;;3.47;;
29362;SDS011;16349;53.672;10.014;2023-04-07T11:10:26;4.50;;;4.10;;
29362;SDS011;16349;53.672;10.014;2023-04-07T11:13:00;6.20;;;4.10;;
29362;SDS011;16349;53.672;10.014;2023-04-07T11:15:32;4.20;;;3.80;;
29362;SDS011;16349;53.672;10.014;2023-04-07T11:18:09;6.43;;;4.10;;
29362;SDS011;16349;53.672;10.014;2023-04-07T11:20:43;4.40;;;4.00;;
29362;SDS011;16349;53.672;10.014;2023-04-07T11:23:12;4.80;;;4.30;;
29362;SDS011;16349;53.672;10.014;2023-04-07T11:25:40;4.40;;;3.80;;
29362;SDS011;16349;53.672;10.014;2023-04-07T11:28:09;3.87;;;3.47;;
29362;SDS011;16349;53.672;10.014;2023-04-07T11:30:37;4.80;;;3.77;;
29362;SDS011;16349;53.672;10.014;2023-04-07T11:33:04;4.57;;;3.43;;
29362;SDS011;16349;53.672;10.014;2023-04-07T11:35:32;4.33;;;3.80;;
29362;SDS011;16349;53.672;10.014;2023-04-07T11:38:02;4.17;;;3.77;;
29362;SDS011;16349;53.672;10.014;2023-04-07T11:40:33;5.17;;;4.10;;
29362;SDS011;16349;53.672;10.014;2023-04-07T11:43:01;5.43;;;3.70;;
29362;SDS011;16349;53.672;10.014;2023-04-07T11:45:28;4.57;;;3.33;;
29362;SDS011;16349;53.672;10.014;2023-04-07T11:47:55;3.93;;;3.27;;
29362;SDS011;16349;53.672;10.014;2023-04-07T11:50:38;3.87;;;3.37;;
29362;SDS011;16349;53.672;10.014;2023-04-07T11:53:08;3.27;;;2.97;;
29362;SDS011;16349;53.672;10.014;2023-04-07T11:55:35;3.73;;;3.30;;
29362;SDS011;16349;53.672;10.014;2023-04-07T11:58:05;3.90;;;3.33;;
29362;SDS011;16349;53.672;10.014;2023-04-07T12:00:34;5.17;;;3.27;;
29362;SDS011;16349;53.672;10.014;2023-04-07T12:03:08;3.67;;;3.33;;
29362;SDS011;16349;53.672;10.014;2023-04-07T12:05:42;4.70;;;2.90;;
29362;SDS011;16349;53.672;10.014;2023-04-07T12:19:56;2.60;;;2.40;;
29362;SDS011;16349;53.672;10.014;2023-04-07T12:22:23;3.07;;;2.77;;
29362;SDS011;16349;53.672;10.014;2023-04-07T12:24:50;3.50;;;2.40;;
29362;SDS011;16349;53.672;10.014;2023-04-07T12:27:17;2.17;;;1.97;;
29362;SDS011;16349;53.672;10.014;2023-04-07T12:29:43;2.97;;;2.10;;
29362;SDS011;16349;53.672;10.014;2023-04-07T12:32:11;2.37;;;2.00;;
29362;SDS011;16349;53.672;10.014;2023-04-07T12:34:38;3.43;;;2.00;;
29362;SDS011;16349;53.672;10.014;2023-04-07T12:37:06;2.50;;;2.30;;
29362;SDS011;16349;53.672;10.014;2023-04-07T12:39:32;3.27;;;2.10;;
29362;SDS011;16349;53.672;10.014;2023-04-07T12:42:00;4.23;;;2.30;;
29362;SDS011;16349;53.672;10.014;2023-04-07T12:44:26;4.33;;;1.93;;
29362;SDS011;16349;53.672;10.014;2023-04-07T12:46:53;4.90;;;2.00;;
29362;SDS011;16349;53.672;10.014;2023-04-07T12:49:20;1.83;;;1.60;;
29362;SDS011;16349;53.672;10.014;2023-04-07T12:51:47;2.80;;;2.03;;
29362;SDS011;16349;53.672;10.014;2023-04-07T12:54:17;2.47;;;1.80;;
29362;SDS011;16349;53.672;10.014;2023-04-07T12:56:43;3.03;;;1.90;;
29362;SDS011;16349;53.672;10.014;2023-04-07T12:59:12;4.80;;;1.93;;
29362;SDS011;16349;53.672;10.014;2023-04-07T13:01:38;2.43;;;1.70;;
29362;SDS011;16349;53.672;10.014;2023-04-07T13:04:06;1.70;;;1.60;;
29362;SDS011;16349;53.672;10.014;2023-04-07T13:06:33;4.37;;;2.00;;
29362;SDS011;16349;53.672;10.014;2023-04-07T13:09:00;1.93;;;1.80;;
29362;SDS011;16349;53.672;10.014;2023-04-07T13:11:28;2.00;;;1.57;;
29362;SDS011;16349;53.672;10.014;2023-04-07T13:13:55;1.70;;;1.60;;
29362;SDS011;16349;53.672;10.014;2023-04-07T13:16:24;1.87;;;1.77;;
29362;SDS011;16349;53.672;10.014;2023-04-07T13:18:51;2.17;;;1.83;;
29362;SDS011;16349;53.672;10.014;2023-04-07T13:21:40;3.00;;;2.07;;
29362;SDS011;16349;53.672;10.014;2023-04-07T13:24:07;2.38;;;2.17;;
29362;SDS011;16349;53.672;10.014;2023-04-07T13:26:35;2.20;;;2.00;;
29362;SDS011;16349;53.672;10.014;2023-04-07T13:29:23;1.70;;;1.60;;
29362;SDS011;16349;53.672;10.014;2023-04-07T13:31:51;3.93;;;2.03;;
29362;SDS011;16349;53.672;10.014;2023-04-07T13:34:18;2.10;;;1.80;;
29362;SDS011;16349;53.672;10.014;2023-04-07T13:36:44;2.50;;;2.13;;
29362;SDS011;16349;53.672;10.014;2023-04-07T13:39:11;3.47;;;2.40;;
29362;SDS011;16349;53.672;10.014;2023-04-07T13:41:39;3.63;;;2.30;;
29362;SDS011;16349;53.672;10.014;2023-04-07T13:44:06;3.73;;;2.20;;
29362;SDS011;16349;53.672;10.014;2023-04-07T13:46:33;2.20;;;2.00;;
29362;SDS011;16349;53.672;10.014;2023-04-07T13:49:01;2.67;;;1.80;;
29362;SDS011;16349;53.672;10.014;2023-04-07T13:51:28;3.93;;;2.70;;
29362;SDS011;16349;53.672;10.014;2023-04-07T13:53:55;3.93;;;2.00;;
29362;SDS011;16349;53.672;10.014;2023-04-07T13:56:22;2.97;;;2.17;;
29362;SDS011;16349;53.672;10.014;2023-04-07T13:58:50;4.03;;;2.67;;
29362;SDS011;16349;53.672;10.014;2023-04-07T14:01:16;2.50;;;2.30;;
29362;SDS011;16349;53.672;10.014;2023-04-07T14:03:44;2.50;;;2.30;;
29362;SDS011;16349;53.672;10.014;2023-04-07T14:06:13;2.53;;;2.33;;
29362;SDS011;16349;53.672;10.014;2023-04-07T14:08:40;3.27;;;2.50;;
29362;SDS011;16349;53.672;10.014;2023-04-07T14:11:27;4.67;;;2.73;;
29362;SDS011;16349;53.672;10.014;2023-04-07T14:13:56;3.70;;;2.70;;
29362;SDS011;16349;53.672;10.014;2023-04-07T14:16:23;2.57;;;2.33;;
29362;SDS011;16349;53.672;10.014;2023-04-07T14:18:51;5.20;;;2.20;;
29362;SDS011;16349;53.672;10.014;2023-04-07T14:21:17;2.67;;;2.47;;
29362;SDS011;16349;53.672;10.014;2023-04-07T14:23:45;15.93;;;4.73;;
29362;SDS011;16349;53.672;10.014;2023-04-07T14:26:11;6.60;;;2.67;;
29362;SDS011;16349;53.672;10.014;2023-04-07T14:28:40;3.20;;;2.33;;
29362;SDS011;16349;53.672;10.014;2023-04-07T14:31:11;4.70;;;2.53;;
29362;SDS011;16349;53.672;10.014;2023-04-07T14:33:40;3.80;;;2.50;;
29362;SDS011;16349;53.672;10.014;2023-04-07T14:36:06;4.77;;;2.70;;
29362;SDS011;16349;53.672;10.014;2023-04-07T14:38:34;2.50;;;2.30;;
29362;SDS011;16349;53.672;10.014;2023-04-07T14:41:01;3.83;;;2.47;;
29362;SDS011;16349;53.672;10.014;2023-04-07T14:43:28;2.83;;;2.53;;
29362;SDS011;16349;53.672;10.014;2023-04-07T14:45:55;4.33;;;2.30;;
29362;SDS011;16349;53.672;10.014;2023-04-07T14:48:25;3.33;;;2.37;;
29362;SDS011;16349;53.672;10.014;2023-04-07T14:50:52;4.50;;;2.70;;
29362;SDS011;16349;53.672;10.014;2023-04-07T14:53:19;3.03;;;2.40;;
29362;SDS011;16349;53.672;10.014;2023-04-07T14:55:47;2.80;;;2.60;;
29362;SDS011;16349;53.672;10.014;2023-04-07T14:58:13;4.67;;;2.53;;
29362;SDS011;16349;53.672;10.014;2023-04-07T15:00:40;3.20;;;2.30;;
29362;SDS011;16349;53.672;10.014;2023-04-07T15:03:07;3.53;;;2.57;;
29362;SDS011;16349;53.672;10.014;2023-04-07T15:05:35;4.03;;;2.67;;
29362;SDS011;16349;53.672;10.014;2023-04-07T15:08:02;3.80;;;2.70;;